sensor_id;sensor_type;location;lat;lon;timestamp;P1;durP1;ratioP1;P2;durP2;ratioP2
74791;SDS011;63319;46.046;17.802;2022-11-15T00:02:46;15.67;;;11.27;;
74791;SDS011;63319;46.046;17.802;2022-11-15T00:06:08;16.15;;;11.13;;
74791;SDS011;63319;46.046;17.802;2022-11-15T00:09:30;15.57;;;11.30;;
74791;SDS011;63319;46.046;17.802;2022-11-15T00:12:51;16.02;;;11.23;;
74791;SDS011;63319;46.046;17.802;2022-11-15T00:16:13;15.38;;;11.55;;
74791;SDS011;63319;46.046;17.802;2022-11-15T00:19:34;16.77;;;11.20;;
74791;SDS011;63319;46.046;17.802;2022-11-15T00:22:56;15.40;;;10.48;;
74791;SDS011;63319;46.046;17.802;2022-11-15T00:26:17;14.93;;;11.13;;
74791;SDS011;63319;46.046;17.802;2022-11-15T00:29:54;14.73;;;10.38;;
74791;SDS011;63319;46.046;17.802;2022-11-15T00:33:34;14.05;;;10.13;;
74791;SDS011;63319;46.046;17.802;2022-11-15T00:36:55;16.47;;;10.60;;
74791;SDS011;63319;46.046;17.802;2022-11-15T00:40:19;14.80;;;10.70;;
74791;SDS011;63319;46.046;17.802;2022-11-15T00:43:41;16.42;;;11.43;;
74791;SDS011;63319;46.046;17.802;2022-11-15T00:47:05;16.20;;;11.25;;
74791;SDS011;63319;46.046;17.802;2022-11-15T00:50:27;15.88;;;11.20;;
74791;SDS011;63319;46.046;17.802;2022-11-15T00:53:48;13.33;;;9.80;;
74791;SDS011;63319;46.046;17.802;2022-11-15T00:57:10;15.05;;;10.88;;
74791;SDS011;63319;46.046;17.802;2022-11-15T01:00:32;15.93;;;11.80;;
74791;SDS011;63319;46.046;17.802;2022-11-15T01:03:53;15.05;;;10.55;;
74791;SDS011;63319;46.046;17.802;2022-11-15T01:07:21;15.35;;;10.23;;
74791;SDS011;63319;46.046;17.802;2022-11-15T01:10:42;15.10;;;10.83;;
74791;SDS011;63319;46.046;17.802;2022-11-15T01:14:03;13.60;;;9.85;;
74791;SDS011;63319;46.046;17.802;2022-11-15T01:17:24;15.10;;;10.88;;
74791;SDS011;63319;46.046;17.802;2022-11-15T01:20:47;15.35;;;11.13;;
74791;SDS011;63319;46.046;17.802;2022-11-15T01:24:09;13.88;;;10.05;;
74791;SDS011;63319;46.046;17.802;2022-11-15T01:27:33;14.50;;;10.37;;
74791;SDS011;63319;46.046;17.802;2022-11-15T01:30:57;15.85;;;10.10;;
74791;SDS011;63319;46.046;17.802;2022-11-15T01:34:20;13.80;;;9.93;;
74791;SDS011;63319;46.046;17.802;2022-11-15T01:37:41;14.73;;;9.98;;
74791;SDS011;63319;46.046;17.802;2022-11-15T01:41:03;13.25;;;9.70;;
74791;SDS011;63319;46.046;17.802;2022-11-15T01:47:52;14.82;;;10.23;;
74791;SDS011;63319;46.046;17.802;2022-11-15T01:51:15;15.15;;;10.75;;
74791;SDS011;63319;46.046;17.802;2022-11-15T01:54:38;14.70;;;10.65;;
74791;SDS011;63319;46.046;17.802;2022-11-15T01:58:01;14.27;;;10.05;;
74791;SDS011;63319;46.046;17.802;2022-11-15T02:01:25;14.13;;;9.67;;
74791;SDS011;63319;46.046;17.802;2022-11-15T02:04:47;15.00;;;9.93;;
74791;SDS011;63319;46.046;17.802;2022-11-15T02:08:08;13.48;;;9.38;;
74791;SDS011;63319;46.046;17.802;2022-11-15T02:11:41;12.50;;;9.30;;
74791;SDS011;63319;46.046;17.802;2022-11-15T02:15:03;13.70;;;9.60;;
74791;SDS011;63319;46.046;17.802;2022-11-15T02:18:28;13.43;;;9.10;;
74791;SDS011;63319;46.046;17.802;2022-11-15T02:22:03;15.60;;;10.30;;
74791;SDS011;63319;46.046;17.802;2022-11-15T02:29:55;13.55;;;9.63;;
74791;SDS011;63319;46.046;17.802;2022-11-15T02:37:11;13.50;;;9.57;;
74791;SDS011;63319;46.046;17.802;2022-11-15T02:40:54;13.45;;;9.35;;
74791;SDS011;63319;46.046;17.802;2022-11-15T02:44:26;14.30;;;10.00;;
74791;SDS011;63319;46.046;17.802;2022-11-15T02:47:52;13.45;;;9.93;;
74791;SDS011;63319;46.046;17.802;2022-11-15T02:51:17;13.95;;;10.15;;
74791;SDS011;63319;46.046;17.802;2022-11-15T02:54:39;14.10;;;9.67;;
74791;SDS011;63319;46.046;17.802;2022-11-15T02:58:11;12.23;;;8.90;;
74791;SDS011;63319;46.046;17.802;2022-11-15T03:12:42;12.27;;;9.00;;
74791;SDS011;63319;46.046;17.802;2022-11-15T03:16:12;13.25;;;9.40;;
74791;SDS011;63319;46.046;17.802;2022-11-15T03:19:48;13.32;;;9.20;;
74791;SDS011;63319;46.046;17.802;2022-11-15T03:23:13;12.52;;;8.50;;
74791;SDS011;63319;46.046;17.802;2022-11-15T03:26:35;14.45;;;9.32;;
74791;SDS011;63319;46.046;17.802;2022-11-15T03:30:02;12.67;;;9.17;;
74791;SDS011;63319;46.046;17.802;2022-11-15T03:33:26;13.27;;;9.40;;
74791;SDS011;63319;46.046;17.802;2022-11-15T03:36:49;13.10;;;9.40;;
74791;SDS011;63319;46.046;17.802;2022-11-15T03:40:11;14.38;;;9.85;;
74791;SDS011;63319;46.046;17.802;2022-11-15T03:43:41;12.60;;;8.68;;
74791;SDS011;63319;46.046;17.802;2022-11-15T03:47:09;11.63;;;8.20;;
74791;SDS011;63319;46.046;17.802;2022-11-15T03:50:32;12.18;;;8.48;;
74791;SDS011;63319;46.046;17.802;2022-11-15T03:53:54;11.52;;;8.43;;
74791;SDS011;63319;46.046;17.802;2022-11-15T03:57:16;12.95;;;8.63;;
74791;SDS011;63319;46.046;17.802;2022-11-15T04:00:41;12.48;;;8.80;;
74791;SDS011;63319;46.046;17.802;2022-11-15T04:04:02;12.37;;;8.43;;
74791;SDS011;63319;46.046;17.802;2022-11-15T04:07:23;11.35;;;8.00;;
74791;SDS011;63319;46.046;17.802;2022-11-15T04:10:45;12.38;;;8.70;;
74791;SDS011;63319;46.046;17.802;2022-11-15T04:14:10;12.90;;;8.82;;
74791;SDS011;63319;46.046;17.802;2022-11-15T04:17:31;12.75;;;8.18;;
74791;SDS011;63319;46.046;17.802;2022-11-15T04:20:52;12.63;;;8.27;;
74791;SDS011;63319;46.046;17.802;2022-11-15T04:24:32;13.13;;;8.30;;
74791;SDS011;63319;46.046;17.802;2022-11-15T04:27:53;12.15;;;8.45;;
74791;SDS011;63319;46.046;17.802;2022-11-15T04:31:14;11.93;;;8.45;;
74791;SDS011;63319;46.046;17.802;2022-11-15T04:34:36;12.25;;;8.30;;
74791;SDS011;63319;46.046;17.802;2022-11-15T04:37:59;11.60;;;8.20;;
74791;SDS011;63319;46.046;17.802;2022-11-15T04:41:20;11.32;;;8.07;;
74791;SDS011;63319;46.046;17.802;2022-11-15T04:44:41;10.98;;;8.27;;
74791;SDS011;63319;46.046;17.802;2022-11-15T04:48:03;11.20;;;7.80;;
74791;SDS011;63319;46.046;17.802;2022-11-15T04:51:25;12.68;;;8.43;;
74791;SDS011;63319;46.046;17.802;2022-11-15T04:54:47;11.47;;;8.37;;
74791;SDS011;63319;46.046;17.802;2022-11-15T04:58:09;13.30;;;8.60;;
74791;SDS011;63319;46.046;17.802;2022-11-15T05:01:30;12.52;;;9.07;;
74791;SDS011;63319;46.046;17.802;2022-11-15T05:04:52;11.07;;;7.63;;
74791;SDS011;63319;46.046;17.802;2022-11-15T05:08:13;12.60;;;8.45;;
74791;SDS011;63319;46.046;17.802;2022-11-15T05:11:34;11.50;;;8.00;;
74791;SDS011;63319;46.046;17.802;2022-11-15T05:14:56;12.05;;;8.43;;
74791;SDS011;63319;46.046;17.802;2022-11-15T05:18:17;11.20;;;7.57;;
74791;SDS011;63319;46.046;17.802;2022-11-15T05:21:43;11.70;;;7.80;;
74791;SDS011;63319;46.046;17.802;2022-11-15T05:25:05;11.95;;;8.32;;
74791;SDS011;63319;46.046;17.802;2022-11-15T05:28:27;11.87;;;8.00;;
74791;SDS011;63319;46.046;17.802;2022-11-15T05:31:49;11.50;;;8.20;;
74791;SDS011;63319;46.046;17.802;2022-11-15T05:35:29;10.95;;;7.63;;
74791;SDS011;63319;46.046;17.802;2022-11-15T05:38:52;10.30;;;7.43;;
74791;SDS011;63319;46.046;17.802;2022-11-15T05:42:14;11.65;;;8.00;;
74791;SDS011;63319;46.046;17.802;2022-11-15T05:45:36;12.20;;;7.87;;
74791;SDS011;63319;46.046;17.802;2022-11-15T05:48:58;11.98;;;8.07;;
74791;SDS011;63319;46.046;17.802;2022-11-15T05:52:21;10.88;;;7.72;;
74791;SDS011;63319;46.046;17.802;2022-11-15T05:55:45;10.98;;;7.80;;
74791;SDS011;63319;46.046;17.802;2022-11-15T05:59:08;10.82;;;7.75;;
74791;SDS011;63319;46.046;17.802;2022-11-15T06:02:30;11.60;;;7.50;;
74791;SDS011;63319;46.046;17.802;2022-11-15T06:05:52;10.82;;;7.50;;
74791;SDS011;63319;46.046;17.802;2022-11-15T06:09:13;11.48;;;8.10;;
74791;SDS011;63319;46.046;17.802;2022-11-15T06:12:34;11.35;;;7.82;;
74791;SDS011;63319;46.046;17.802;2022-11-15T06:15:56;12.98;;;8.10;;
74791;SDS011;63319;46.046;17.802;2022-11-15T06:19:17;11.43;;;7.40;;
74791;SDS011;63319;46.046;17.802;2022-11-15T06:22:42;12.10;;;7.55;;
74791;SDS011;63319;46.046;17.802;2022-11-15T06:26:03;10.82;;;7.30;;
74791;SDS011;63319;46.046;17.802;2022-11-15T06:29:25;10.93;;;7.32;;
74791;SDS011;63319;46.046;17.802;2022-11-15T06:32:46;11.13;;;7.90;;
74791;SDS011;63319;46.046;17.802;2022-11-15T06:36:09;11.30;;;7.97;;
74791;SDS011;63319;46.046;17.802;2022-11-15T06:39:37;10.68;;;7.72;;
74791;SDS011;63319;46.046;17.802;2022-11-15T06:42:59;11.80;;;7.95;;
74791;SDS011;63319;46.046;17.802;2022-11-15T06:46:20;11.73;;;7.80;;
74791;SDS011;63319;46.046;17.802;2022-11-15T06:49:41;10.82;;;7.45;;
74791;SDS011;63319;46.046;17.802;2022-11-15T06:53:03;11.23;;;7.57;;
74791;SDS011;63319;46.046;17.802;2022-11-15T06:56:24;11.00;;;7.22;;
74791;SDS011;63319;46.046;17.802;2022-11-15T06:59:45;11.35;;;7.70;;
74791;SDS011;63319;46.046;17.802;2022-11-15T07:03:08;12.75;;;7.93;;
74791;SDS011;63319;46.046;17.802;2022-11-15T07:06:30;11.82;;;8.65;;
74791;SDS011;63319;46.046;17.802;2022-11-15T07:09:55;11.07;;;7.63;;
74791;SDS011;63319;46.046;17.802;2022-11-15T07:13:16;9.50;;;6.97;;
74791;SDS011;63319;46.046;17.802;2022-11-15T07:16:37;10.55;;;7.18;;
74791;SDS011;63319;46.046;17.802;2022-11-15T07:19:58;11.27;;;7.95;;
74791;SDS011;63319;46.046;17.802;2022-11-15T07:23:20;11.55;;;7.93;;
74791;SDS011;63319;46.046;17.802;2022-11-15T07:26:41;11.63;;;8.20;;
74791;SDS011;63319;46.046;17.802;2022-11-15T07:30:03;12.35;;;8.43;;
74791;SDS011;63319;46.046;17.802;2022-11-15T07:33:25;13.07;;;7.82;;
74791;SDS011;63319;46.046;17.802;2022-11-15T07:36:47;13.00;;;7.50;;
74791;SDS011;63319;46.046;17.802;2022-11-15T07:40:08;11.85;;;7.82;;
74791;SDS011;63319;46.046;17.802;2022-11-15T07:43:30;12.03;;;7.40;;
74791;SDS011;63319;46.046;17.802;2022-11-15T07:46:53;11.35;;;7.50;;
74791;SDS011;63319;46.046;17.802;2022-11-15T07:50:15;11.00;;;7.72;;
74791;SDS011;63319;46.046;17.802;2022-11-15T07:53:43;12.18;;;7.95;;
74791;SDS011;63319;46.046;17.802;2022-11-15T07:57:05;12.73;;;7.93;;
74791;SDS011;63319;46.046;17.802;2022-11-15T08:00:28;12.00;;;7.47;;
74791;SDS011;63319;46.046;17.802;2022-11-15T08:03:51;12.82;;;7.47;;
74791;SDS011;63319;46.046;17.802;2022-11-15T08:07:13;11.98;;;7.68;;
74791;SDS011;63319;46.046;17.802;2022-11-15T08:10:35;13.63;;;8.07;;
74791;SDS011;63319;46.046;17.802;2022-11-15T08:14:01;11.60;;;8.38;;
74791;SDS011;63319;46.046;17.802;2022-11-15T08:17:23;12.40;;;7.80;;
74791;SDS011;63319;46.046;17.802;2022-11-15T08:20:47;11.35;;;7.47;;
74791;SDS011;63319;46.046;17.802;2022-11-15T08:24:09;11.88;;;7.97;;
74791;SDS011;63319;46.046;17.802;2022-11-15T08:27:32;15.93;;;8.10;;
74791;SDS011;63319;46.046;17.802;2022-11-15T08:30:54;11.88;;;8.15;;
74791;SDS011;63319;46.046;17.802;2022-11-15T08:34:16;15.27;;;9.20;;
74791;SDS011;63319;46.046;17.802;2022-11-15T08:37:37;12.90;;;7.90;;
74791;SDS011;63319;46.046;17.802;2022-11-15T08:41:02;12.00;;;8.32;;
74791;SDS011;63319;46.046;17.802;2022-11-15T08:44:25;12.07;;;7.75;;
74791;SDS011;63319;46.046;17.802;2022-11-15T08:47:46;12.15;;;7.85;;
74791;SDS011;63319;46.046;17.802;2022-11-15T08:51:14;12.60;;;7.90;;
74791;SDS011;63319;46.046;17.802;2022-11-15T08:54:35;14.10;;;7.88;;
74791;SDS011;63319;46.046;17.802;2022-11-15T08:57:57;12.90;;;7.82;;
74791;SDS011;63319;46.046;17.802;2022-11-15T09:01:20;13.98;;;7.90;;
74791;SDS011;63319;46.046;17.802;2022-11-15T09:04:44;14.10;;;8.40;;
74791;SDS011;63319;46.046;17.802;2022-11-15T09:08:05;15.73;;;9.20;;
74791;SDS011;63319;46.046;17.802;2022-11-15T09:11:47;17.85;;;8.65;;
74791;SDS011;63319;46.046;17.802;2022-11-15T09:15:09;13.85;;;9.10;;
74791;SDS011;63319;46.046;17.802;2022-11-15T09:18:31;15.02;;;9.05;;
74791;SDS011;63319;46.046;17.802;2022-11-15T09:21:59;15.27;;;9.18;;
74791;SDS011;63319;46.046;17.802;2022-11-15T09:25:21;15.80;;;9.60;;
74791;SDS011;63319;46.046;17.802;2022-11-15T09:28:45;15.38;;;9.50;;
74791;SDS011;63319;46.046;17.802;2022-11-15T09:32:10;20.23;;;10.80;;
74791;SDS011;63319;46.046;17.802;2022-11-15T09:35:32;15.60;;;9.82;;
74791;SDS011;63319;46.046;17.802;2022-11-15T09:39:00;19.17;;;10.88;;
74791;SDS011;63319;46.046;17.802;2022-11-15T09:50:06;19.40;;;12.02;;
74791;SDS011;63319;46.046;17.802;2022-11-15T10:00:32;17.70;;;11.43;;
74791;SDS011;63319;46.046;17.802;2022-11-15T10:03:48;20.75;;;11.82;;
74791;SDS011;63319;46.046;17.802;2022-11-15T10:13:41;17.85;;;11.63;;
74791;SDS011;63319;46.046;17.802;2022-11-15T10:23:25;19.52;;;12.07;;
74791;SDS011;63319;46.046;17.802;2022-11-15T10:26:30;17.75;;;11.30;;
74791;SDS011;63319;46.046;17.802;2022-11-15T10:29:34;17.98;;;11.02;;
74791;SDS011;63319;46.046;17.802;2022-11-15T10:32:37;16.87;;;10.00;;
74791;SDS011;63319;46.046;17.802;2022-11-15T10:35:42;16.13;;;10.82;;
74791;SDS011;63319;46.046;17.802;2022-11-15T10:41:57;19.30;;;11.43;;
74791;SDS011;63319;46.046;17.802;2022-11-15T10:45:27;20.40;;;11.55;;
74791;SDS011;63319;46.046;17.802;2022-11-15T10:48:33;19.80;;;11.43;;
74791;SDS011;63319;46.046;17.802;2022-11-15T10:51:39;19.23;;;11.57;;
74791;SDS011;63319;46.046;17.802;2022-11-15T10:58:19;18.50;;;10.90;;
74791;SDS011;63319;46.046;17.802;2022-11-15T11:01:28;19.10;;;11.07;;
74791;SDS011;63319;46.046;17.802;2022-11-15T11:04:40;18.20;;;10.87;;
74791;SDS011;63319;46.046;17.802;2022-11-15T11:07:59;16.73;;;11.18;;
74791;SDS011;63319;46.046;17.802;2022-11-15T11:11:23;17.00;;;11.40;;
74791;SDS011;63319;46.046;17.802;2022-11-15T11:14:30;18.77;;;12.13;;
74791;SDS011;63319;46.046;17.802;2022-11-15T11:20:45;18.03;;;11.00;;
74791;SDS011;63319;46.046;17.802;2022-11-15T11:34:45;26.45;;;11.60;;
74791;SDS011;63319;46.046;17.802;2022-11-15T11:44:58;24.92;;;14.45;;
74791;SDS011;63319;46.046;17.802;2022-11-15T11:52:44;23.42;;;14.63;;
74791;SDS011;63319;46.046;17.802;2022-11-15T11:55:46;22.97;;;14.07;;
74791;SDS011;63319;46.046;17.802;2022-11-15T11:58:53;21.40;;;14.20;;
74791;SDS011;63319;46.046;17.802;2022-11-15T12:05:42;21.05;;;13.52;;
74791;SDS011;63319;46.046;17.802;2022-11-15T12:08:56;20.65;;;13.02;;
74791;SDS011;63319;46.046;17.802;2022-11-15T12:12:12;22.33;;;13.77;;
74791;SDS011;63319;46.046;17.802;2022-11-15T12:15:31;18.90;;;13.35;;
74791;SDS011;63319;46.046;17.802;2022-11-15T12:18:42;21.75;;;12.95;;
74791;SDS011;63319;46.046;17.802;2022-11-15T12:25:39;19.08;;;12.48;;
74791;SDS011;63319;46.046;17.802;2022-11-15T12:35:37;19.83;;;13.00;;
74791;SDS011;63319;46.046;17.802;2022-11-15T12:39:02;20.77;;;13.20;;
74791;SDS011;63319;46.046;17.802;2022-11-15T12:54:50;18.88;;;11.57;;
74791;SDS011;63319;46.046;17.802;2022-11-15T12:57:55;18.30;;;12.32;;
74791;SDS011;63319;46.046;17.802;2022-11-15T13:04:38;21.17;;;12.20;;
74791;SDS011;63319;46.046;17.802;2022-11-15T13:10:44;21.83;;;11.63;;
74791;SDS011;63319;46.046;17.802;2022-11-15T13:13:47;21.52;;;12.20;;
74791;SDS011;63319;46.046;17.802;2022-11-15T13:16:58;18.03;;;12.40;;
74791;SDS011;63319;46.046;17.802;2022-11-15T13:23:11;25.98;;;15.02;;
74791;SDS011;63319;46.046;17.802;2022-11-15T13:26:16;22.83;;;14.38;;
74791;SDS011;63319;46.046;17.802;2022-11-15T13:29:20;27.98;;;15.15;;
74791;SDS011;63319;46.046;17.802;2022-11-15T13:32:22;23.87;;;13.73;;
74791;SDS011;63319;46.046;17.802;2022-11-15T13:35:27;22.20;;;13.38;;
74791;SDS011;63319;46.046;17.802;2022-11-15T13:38:32;25.80;;;15.18;;
74791;SDS011;63319;46.046;17.802;2022-11-15T13:41:49;21.05;;;13.70;;
74791;SDS011;63319;46.046;17.802;2022-11-15T13:45:00;24.60;;;15.32;;
74791;SDS011;63319;46.046;17.802;2022-11-15T13:48:07;22.57;;;14.07;;
74791;SDS011;63319;46.046;17.802;2022-11-15T13:51:16;24.15;;;15.02;;
74791;SDS011;63319;46.046;17.802;2022-11-15T13:58:08;28.63;;;17.83;;
74791;SDS011;63319;46.046;17.802;2022-11-15T14:01:17;30.50;;;17.70;;
74791;SDS011;63319;46.046;17.802;2022-11-15T14:04:23;34.27;;;18.40;;
74791;SDS011;63319;46.046;17.802;2022-11-15T14:07:29;38.35;;;19.90;;
74791;SDS011;63319;46.046;17.802;2022-11-15T14:10:43;34.72;;;19.00;;
74791;SDS011;63319;46.046;17.802;2022-11-15T14:14:10;31.55;;;18.02;;
74791;SDS011;63319;46.046;17.802;2022-11-15T14:17:37;30.33;;;18.08;;
74791;SDS011;63319;46.046;17.802;2022-11-15T14:20:42;30.83;;;16.77;;
74791;SDS011;63319;46.046;17.802;2022-11-15T14:23:45;33.45;;;17.75;;
74791;SDS011;63319;46.046;17.802;2022-11-15T14:26:49;27.83;;;17.52;;
74791;SDS011;63319;46.046;17.802;2022-11-15T14:29:52;31.25;;;17.23;;
74791;SDS011;63319;46.046;17.802;2022-11-15T14:32:56;32.55;;;17.60;;
74791;SDS011;63319;46.046;17.802;2022-11-15T14:36:33;28.07;;;16.57;;
74791;SDS011;63319;46.046;17.802;2022-11-15T14:39:30;29.73;;;18.00;;
74791;SDS011;63319;46.046;17.802;2022-11-15T14:42:33;27.80;;;16.38;;
74791;SDS011;63319;46.046;17.802;2022-11-15T14:45:37;27.27;;;17.08;;
74791;SDS011;63319;46.046;17.802;2022-11-15T14:48:42;29.83;;;17.13;;
74791;SDS011;63319;46.046;17.802;2022-11-15T14:51:45;24.07;;;15.30;;
74791;SDS011;63319;46.046;17.802;2022-11-15T14:54:48;26.38;;;16.35;;
74791;SDS011;63319;46.046;17.802;2022-11-15T14:57:51;29.20;;;17.02;;
74791;SDS011;63319;46.046;17.802;2022-11-15T15:00:57;27.05;;;16.45;;
74791;SDS011;63319;46.046;17.802;2022-11-15T15:04:01;27.73;;;17.55;;
74791;SDS011;63319;46.046;17.802;2022-11-15T15:07:03;24.53;;;16.53;;
74791;SDS011;63319;46.046;17.802;2022-11-15T15:10:07;31.58;;;16.88;;
74791;SDS011;63319;46.046;17.802;2022-11-15T15:13:30;24.42;;;16.42;;
74791;SDS011;63319;46.046;17.802;2022-11-15T15:16:33;27.73;;;16.52;;
74791;SDS011;63319;46.046;17.802;2022-11-15T15:19:36;29.67;;;17.50;;
74791;SDS011;63319;46.046;17.802;2022-11-15T15:22:38;30.03;;;16.30;;
74791;SDS011;63319;46.046;17.802;2022-11-15T15:25:42;25.23;;;15.85;;
74791;SDS011;63319;46.046;17.802;2022-11-15T15:28:45;27.58;;;16.38;;
74791;SDS011;63319;46.046;17.802;2022-11-15T15:31:51;24.15;;;15.70;;
74791;SDS011;63319;46.046;17.802;2022-11-15T15:34:54;28.02;;;16.83;;
74791;SDS011;63319;46.046;17.802;2022-11-15T15:37:56;29.97;;;16.17;;
74791;SDS011;63319;46.046;17.802;2022-11-15T15:40:59;26.00;;;15.90;;
74791;SDS011;63319;46.046;17.802;2022-11-15T15:44:04;23.38;;;15.30;;
74791;SDS011;63319;46.046;17.802;2022-11-15T15:47:09;24.98;;;15.45;;
74791;SDS011;63319;46.046;17.802;2022-11-15T15:53:34;22.63;;;15.27;;
74791;SDS011;63319;46.046;17.802;2022-11-15T15:56:37;24.65;;;14.38;;
74791;SDS011;63319;46.046;17.802;2022-11-15T15:59:40;26.95;;;16.33;;
74791;SDS011;63319;46.046;17.802;2022-11-15T16:02:43;23.80;;;16.00;;
74791;SDS011;63319;46.046;17.802;2022-11-15T16:05:46;25.48;;;16.27;;
74791;SDS011;63319;46.046;17.802;2022-11-15T16:08:48;24.77;;;15.07;;
74791;SDS011;63319;46.046;17.802;2022-11-15T16:12:11;24.63;;;15.05;;
74791;SDS011;63319;46.046;17.802;2022-11-15T16:15:14;22.20;;;15.20;;
74791;SDS011;63319;46.046;17.802;2022-11-15T16:18:17;22.33;;;14.93;;
74791;SDS011;63319;46.046;17.802;2022-11-15T16:21:20;23.98;;;14.93;;
74791;SDS011;63319;46.046;17.802;2022-11-15T16:24:23;25.30;;;16.00;;
74791;SDS011;63319;46.046;17.802;2022-11-15T16:27:26;22.42;;;14.57;;
74791;SDS011;63319;46.046;17.802;2022-11-15T16:30:33;25.63;;;15.98;;
74791;SDS011;63319;46.046;17.802;2022-11-15T16:33:36;24.17;;;15.38;;
74791;SDS011;63319;46.046;17.802;2022-11-15T16:36:39;24.73;;;16.13;;
74791;SDS011;63319;46.046;17.802;2022-11-15T16:39:42;22.97;;;14.83;;
74791;SDS011;63319;46.046;17.802;2022-11-15T16:42:45;23.55;;;14.52;;
74791;SDS011;63319;46.046;17.802;2022-11-15T16:45:50;27.17;;;15.40;;
74791;SDS011;63319;46.046;17.802;2022-11-15T16:48:53;22.50;;;14.60;;
74791;SDS011;63319;46.046;17.802;2022-11-15T16:51:56;23.42;;;15.52;;
74791;SDS011;63319;46.046;17.802;2022-11-15T16:54:58;21.60;;;13.97;;
74791;SDS011;63319;46.046;17.802;2022-11-15T16:58:01;23.77;;;15.35;;
74791;SDS011;63319;46.046;17.802;2022-11-15T17:01:04;21.85;;;14.10;;
74791;SDS011;63319;46.046;17.802;2022-11-15T17:04:08;20.63;;;14.00;;
74791;SDS011;63319;46.046;17.802;2022-11-15T17:07:15;24.65;;;15.07;;
74791;SDS011;63319;46.046;17.802;2022-11-15T17:10:19;19.20;;;13.93;;
74791;SDS011;63319;46.046;17.802;2022-11-15T17:13:23;23.98;;;14.32;;
74791;SDS011;63319;46.046;17.802;2022-11-15T17:16:26;26.13;;;15.60;;
74791;SDS011;63319;46.046;17.802;2022-11-15T17:19:29;23.30;;;13.90;;
74791;SDS011;63319;46.046;17.802;2022-11-15T17:22:32;22.30;;;14.43;;
74791;SDS011;63319;46.046;17.802;2022-11-15T17:25:35;22.60;;;14.43;;
74791;SDS011;63319;46.046;17.802;2022-11-15T17:28:45;20.33;;;12.90;;
74791;SDS011;63319;46.046;17.802;2022-11-15T17:31:47;22.58;;;14.10;;
74791;SDS011;63319;46.046;17.802;2022-11-15T17:34:50;22.00;;;14.40;;
74791;SDS011;63319;46.046;17.802;2022-11-15T17:37:53;22.58;;;14.00;;
74791;SDS011;63319;46.046;17.802;2022-11-15T17:41:00;21.23;;;13.77;;
74791;SDS011;63319;46.046;17.802;2022-11-15T17:44:04;21.60;;;13.27;;
74791;SDS011;63319;46.046;17.802;2022-11-15T17:47:07;23.35;;;13.57;;
74791;SDS011;63319;46.046;17.802;2022-11-15T17:50:10;22.60;;;13.88;;
74791;SDS011;63319;46.046;17.802;2022-11-15T17:53:13;21.90;;;14.43;;
74791;SDS011;63319;46.046;17.802;2022-11-15T17:56:20;19.83;;;13.27;;
74791;SDS011;63319;46.046;17.802;2022-11-15T17:59:24;22.40;;;14.05;;
74791;SDS011;63319;46.046;17.802;2022-11-15T18:02:27;24.75;;;14.93;;
74791;SDS011;63319;46.046;17.802;2022-11-15T18:05:30;21.75;;;14.52;;
74791;SDS011;63319;46.046;17.802;2022-11-15T18:08:36;21.58;;;14.00;;
74791;SDS011;63319;46.046;17.802;2022-11-15T18:11:43;20.03;;;13.47;;
74791;SDS011;63319;46.046;17.802;2022-11-15T18:14:51;20.63;;;13.63;;
74791;SDS011;63319;46.046;17.802;2022-11-15T18:17:55;20.23;;;13.20;;
74791;SDS011;63319;46.046;17.802;2022-11-15T18:24:07;22.77;;;14.75;;
74791;SDS011;63319;46.046;17.802;2022-11-15T18:27:10;21.27;;;13.70;;
74791;SDS011;63319;46.046;17.802;2022-11-15T18:30:13;22.50;;;14.25;;
74791;SDS011;63319;46.046;17.802;2022-11-15T18:33:16;20.35;;;13.02;;
74791;SDS011;63319;46.046;17.802;2022-11-15T18:36:21;22.10;;;14.38;;
74791;SDS011;63319;46.046;17.802;2022-11-15T18:39:27;21.83;;;14.05;;
74791;SDS011;63319;46.046;17.802;2022-11-15T18:42:33;20.93;;;13.53;;
74791;SDS011;63319;46.046;17.802;2022-11-15T18:45:36;21.00;;;13.35;;
74791;SDS011;63319;46.046;17.802;2022-11-15T18:48:39;22.35;;;13.70;;
74791;SDS011;63319;46.046;17.802;2022-11-15T18:51:43;21.10;;;12.90;;
74791;SDS011;63319;46.046;17.802;2022-11-15T18:54:46;19.88;;;13.38;;
74791;SDS011;63319;46.046;17.802;2022-11-15T18:57:57;21.67;;;13.30;;
74791;SDS011;63319;46.046;17.802;2022-11-15T19:01:04;20.10;;;13.98;;
74791;SDS011;63319;46.046;17.802;2022-11-15T19:04:18;22.42;;;14.82;;
74791;SDS011;63319;46.046;17.802;2022-11-15T19:07:22;24.80;;;15.30;;
74791;SDS011;63319;46.046;17.802;2022-11-15T19:10:26;21.40;;;14.25;;
74791;SDS011;63319;46.046;17.802;2022-11-15T19:13:30;23.63;;;13.73;;
74791;SDS011;63319;46.046;17.802;2022-11-15T19:16:35;23.10;;;15.18;;
74791;SDS011;63319;46.046;17.802;2022-11-15T19:19:40;23.83;;;14.77;;
74791;SDS011;63319;46.046;17.802;2022-11-15T19:22:43;24.35;;;13.98;;
74791;SDS011;63319;46.046;17.802;2022-11-15T19:25:56;24.08;;;14.93;;
74791;SDS011;63319;46.046;17.802;2022-11-15T19:29:01;23.30;;;14.53;;
74791;SDS011;63319;46.046;17.802;2022-11-15T19:32:05;21.35;;;12.88;;
74791;SDS011;63319;46.046;17.802;2022-11-15T19:35:08;23.20;;;14.48;;
74791;SDS011;63319;46.046;17.802;2022-11-15T19:38:11;22.70;;;13.75;;
74791;SDS011;63319;46.046;17.802;2022-11-15T19:41:15;22.23;;;14.05;;
74791;SDS011;63319;46.046;17.802;2022-11-15T19:44:20;20.00;;;13.03;;
74791;SDS011;63319;46.046;17.802;2022-11-15T19:47:24;21.00;;;13.20;;
74791;SDS011;63319;46.046;17.802;2022-11-15T19:50:28;21.30;;;13.57;;
74791;SDS011;63319;46.046;17.802;2022-11-15T19:53:32;22.52;;;14.18;;
74791;SDS011;63319;46.046;17.802;2022-11-15T19:56:37;22.33;;;14.55;;
74791;SDS011;63319;46.046;17.802;2022-11-15T19:59:41;22.70;;;13.87;;
74791;SDS011;63319;46.046;17.802;2022-11-15T20:02:44;21.65;;;13.95;;
74791;SDS011;63319;46.046;17.802;2022-11-15T20:05:47;23.70;;;14.48;;
74791;SDS011;63319;46.046;17.802;2022-11-15T20:08:51;23.85;;;15.25;;
74791;SDS011;63319;46.046;17.802;2022-11-15T20:11:54;22.13;;;14.27;;
74791;SDS011;63319;46.046;17.802;2022-11-15T20:14:59;21.70;;;13.73;;
74791;SDS011;63319;46.046;17.802;2022-11-15T20:18:03;25.85;;;15.15;;
74791;SDS011;63319;46.046;17.802;2022-11-15T20:21:07;21.95;;;14.95;;
74791;SDS011;63319;46.046;17.802;2022-11-15T20:24:11;25.08;;;15.25;;
74791;SDS011;63319;46.046;17.802;2022-11-15T20:27:14;22.48;;;15.05;;
74791;SDS011;63319;46.046;17.802;2022-11-15T20:30:18;24.43;;;13.87;;
74791;SDS011;63319;46.046;17.802;2022-11-15T20:33:21;22.48;;;14.00;;
74791;SDS011;63319;46.046;17.802;2022-11-15T20:36:25;24.60;;;14.50;;
74791;SDS011;63319;46.046;17.802;2022-11-15T20:39:28;22.92;;;15.07;;
74791;SDS011;63319;46.046;17.802;2022-11-15T20:42:30;23.60;;;15.43;;
74791;SDS011;63319;46.046;17.802;2022-11-15T20:45:33;25.30;;;16.13;;
74791;SDS011;63319;46.046;17.802;2022-11-15T20:48:36;22.08;;;14.35;;
74791;SDS011;63319;46.046;17.802;2022-11-15T20:51:39;22.27;;;13.88;;
74791;SDS011;63319;46.046;17.802;2022-11-15T20:54:43;23.67;;;14.40;;
74791;SDS011;63319;46.046;17.802;2022-11-15T20:57:47;22.30;;;14.07;;